sensor_id;sensor_type;location;lat;lon;timestamp;P1;durP1;ratioP1;P2;durP2;ratioP2
6860;SDS011;3469;47.060;15.460;2023-05-07T00:00:38;8.10;;;6.73;;
6860;SDS011;3469;47.060;15.460;2023-05-07T00:03:06;9.10;;;7.10;;
6860;SDS011;3469;47.060;15.460;2023-05-07T00:05:35;8.60;;;6.50;;
6860;SDS011;3469;47.060;15.460;2023-05-07T00:08:04;8.27;;;6.90;;
6860;SDS011;3469;47.060;15.460;2023-05-07T00:10:33;6.57;;;5.90;;
6860;SDS011;3469;47.060;15.460;2023-05-07T00:13:02;11.73;;;6.93;;
6860;SDS011;3469;47.060;15.460;2023-05-07T00:15:31;8.00;;;6.67;;
6860;SDS011;3469;47.060;15.460;2023-05-07T00:17:59;11.93;;;7.23;;
6860;SDS011;3469;47.060;15.460;2023-05-07T00:20:27;6.30;;;5.57;;
6860;SDS011;3469;47.060;15.460;2023-05-07T00:22:56;8.40;;;5.83;;
6860;SDS011;3469;47.060;15.460;2023-05-07T00:25:24;6.67;;;5.73;;
6860;SDS011;3469;47.060;15.460;2023-05-07T00:27:52;7.00;;;5.80;;
6860;SDS011;3469;47.060;15.460;2023-05-07T00:30:22;4.43;;;3.43;;
6860;SDS011;3469;47.060;15.460;2023-05-07T00:32:51;5.90;;;5.30;;
6860;SDS011;3469;47.060;15.460;2023-05-07T00:35:19;8.60;;;6.50;;
6860;SDS011;3469;47.060;15.460;2023-05-07T00:37:47;8.30;;;6.00;;
6860;SDS011;3469;47.060;15.460;2023-05-07T00:40:16;8.73;;;7.20;;
6860;SDS011;3469;47.060;15.460;2023-05-07T00:42:44;5.90;;;5.30;;
6860;SDS011;3469;47.060;15.460;2023-05-07T00:45:14;7.50;;;5.83;;
6860;SDS011;3469;47.060;15.460;2023-05-07T00:47:43;9.97;;;7.63;;
6860;SDS011;3469;47.060;15.460;2023-05-07T00:50:11;7.40;;;6.70;;
6860;SDS011;3469;47.060;15.460;2023-05-07T00:52:40;6.07;;;5.47;;
6860;SDS011;3469;47.060;15.460;2023-05-07T00:55:09;7.57;;;6.77;;
6860;SDS011;3469;47.060;15.460;2023-05-07T00:57:39;9.70;;;7.37;;
6860;SDS011;3469;47.060;15.460;2023-05-07T01:00:08;8.70;;;7.03;;
6860;SDS011;3469;47.060;15.460;2023-05-07T01:02:40;11.33;;;7.23;;
6860;SDS011;3469;47.060;15.460;2023-05-07T01:05:10;8.80;;;6.93;;
6860;SDS011;3469;47.060;15.460;2023-05-07T01:07:41;8.63;;;6.30;;
6860;SDS011;3469;47.060;15.460;2023-05-07T01:10:10;7.80;;;6.40;;
6860;SDS011;3469;47.060;15.460;2023-05-07T01:12:39;8.00;;;6.13;;
6860;SDS011;3469;47.060;15.460;2023-05-07T01:15:09;7.50;;;6.63;;
6860;SDS011;3469;47.060;15.460;2023-05-07T01:17:40;7.70;;;6.33;;
6860;SDS011;3469;47.060;15.460;2023-05-07T01:20:20;8.53;;;5.53;;
6860;SDS011;3469;47.060;15.460;2023-05-07T01:22:52;7.03;;;4.90;;
6860;SDS011;3469;47.060;15.460;2023-05-07T01:25:21;4.13;;;3.73;;
6860;SDS011;3469;47.060;15.460;2023-05-07T01:27:52;7.50;;;4.43;;
6860;SDS011;3469;47.060;15.460;2023-05-07T01:30:25;6.20;;;4.20;;
6860;SDS011;3469;47.060;15.460;2023-05-07T01:32:56;4.23;;;3.63;;
6860;SDS011;3469;47.060;15.460;2023-05-07T01:35:28;3.93;;;2.67;;
6860;SDS011;3469;47.060;15.460;2023-05-07T01:38:09;2.70;;;2.27;;
6860;SDS011;3469;47.060;15.460;2023-05-07T01:40:38;4.60;;;3.30;;
6860;SDS011;3469;47.060;15.460;2023-05-07T01:43:06;3.60;;;2.43;;
6860;SDS011;3469;47.060;15.460;2023-05-07T01:45:36;4.40;;;3.37;;
6860;SDS011;3469;47.060;15.460;2023-05-07T01:48:04;4.30;;;3.23;;
6860;SDS011;3469;47.060;15.460;2023-05-07T01:50:33;3.27;;;2.77;;
6860;SDS011;3469;47.060;15.460;2023-05-07T01:53:02;4.00;;;3.60;;
6860;SDS011;3469;47.060;15.460;2023-05-07T01:55:32;7.40;;;4.93;;
6860;SDS011;3469;47.060;15.460;2023-05-07T01:58:00;3.80;;;3.40;;
6860;SDS011;3469;47.060;15.460;2023-05-07T02:00:29;5.10;;;4.60;;
6860;SDS011;3469;47.060;15.460;2023-05-07T02:02:57;5.90;;;5.27;;
6860;SDS011;3469;47.060;15.460;2023-05-07T02:05:37;6.63;;;5.27;;
6860;SDS011;3469;47.060;15.460;2023-05-07T02:08:15;4.20;;;3.80;;
6860;SDS011;3469;47.060;15.460;2023-05-07T02:10:44;5.40;;;4.80;;
6860;SDS011;3469;47.060;15.460;2023-05-07T02:13:13;6.33;;;4.50;;
6860;SDS011;3469;47.060;15.460;2023-05-07T02:15:41;11.33;;;3.03;;
6860;SDS011;3469;47.060;15.460;2023-05-07T02:18:11;5.73;;;3.83;;
6860;SDS011;3469;47.060;15.460;2023-05-07T02:20:39;4.37;;;3.70;;
6860;SDS011;3469;47.060;15.460;2023-05-07T02:23:07;6.17;;;3.70;;
6860;SDS011;3469;47.060;15.460;2023-05-07T02:25:36;5.00;;;4.27;;
6860;SDS011;3469;47.060;15.460;2023-05-07T02:28:05;5.40;;;4.30;;
6860;SDS011;3469;47.060;15.460;2023-05-07T02:30:53;4.70;;;4.00;;
6860;SDS011;3469;47.060;15.460;2023-05-07T02:33:21;5.10;;;4.40;;
6860;SDS011;3469;47.060;15.460;2023-05-07T02:35:50;3.67;;;3.37;;
6860;SDS011;3469;47.060;15.460;2023-05-07T02:38:18;5.00;;;4.50;;
6860;SDS011;3469;47.060;15.460;2023-05-07T02:40:46;5.60;;;4.20;;
6860;SDS011;3469;47.060;15.460;2023-05-07T02:43:17;4.10;;;2.53;;
6860;SDS011;3469;47.060;15.460;2023-05-07T02:45:47;3.20;;;2.70;;
6860;SDS011;3469;47.060;15.460;2023-05-07T02:48:15;3.50;;;3.20;;
6860;SDS011;3469;47.060;15.460;2023-05-07T02:50:44;5.00;;;2.53;;
6860;SDS011;3469;47.060;15.460;2023-05-07T02:53:13;5.40;;;4.10;;
6860;SDS011;3469;47.060;15.460;2023-05-07T02:55:42;2.97;;;1.90;;
6860;SDS011;3469;47.060;15.460;2023-05-07T02:58:10;5.63;;;4.23;;
6860;SDS011;3469;47.060;15.460;2023-05-07T03:00:41;5.13;;;2.73;;
6860;SDS011;3469;47.060;15.460;2023-05-07T03:03:25;6.20;;;4.43;;
6860;SDS011;3469;47.060;15.460;2023-05-07T03:05:53;3.97;;;2.70;;
6860;SDS011;3469;47.060;15.460;2023-05-07T03:08:21;7.13;;;3.57;;
6860;SDS011;3469;47.060;15.460;2023-05-07T03:10:50;4.60;;;4.10;;
6860;SDS011;3469;47.060;15.460;2023-05-07T03:13:18;4.03;;;3.63;;
6860;SDS011;3469;47.060;15.460;2023-05-07T03:15:49;4.00;;;3.60;;
6860;SDS011;3469;47.060;15.460;2023-05-07T03:18:17;5.17;;;4.40;;
6860;SDS011;3469;47.060;15.460;2023-05-07T03:20:47;5.13;;;4.33;;
6860;SDS011;3469;47.060;15.460;2023-05-07T03:23:17;8.43;;;4.30;;
6860;SDS011;3469;47.060;15.460;2023-05-07T03:25:46;4.43;;;3.93;;
6860;SDS011;3469;47.060;15.460;2023-05-07T03:28:14;4.30;;;3.50;;
6860;SDS011;3469;47.060;15.460;2023-05-07T03:30:50;5.90;;;4.10;;
6860;SDS011;3469;47.060;15.460;2023-05-07T03:33:18;4.70;;;4.27;;
6860;SDS011;3469;47.060;15.460;2023-05-07T03:35:47;5.33;;;3.87;;
6860;SDS011;3469;47.060;15.460;2023-05-07T03:38:20;4.97;;;4.47;;
6860;SDS011;3469;47.060;15.460;2023-05-07T03:40:48;5.40;;;4.60;;
6860;SDS011;3469;47.060;15.460;2023-05-07T03:43:17;5.33;;;4.23;;
6860;SDS011;3469;47.060;15.460;2023-05-07T03:45:52;7.20;;;4.50;;
6860;SDS011;3469;47.060;15.460;2023-05-07T03:48:24;10.70;;;5.20;;
6860;SDS011;3469;47.060;15.460;2023-05-07T03:50:55;8.10;;;5.10;;
6860;SDS011;3469;47.060;15.460;2023-05-07T03:53:28;5.93;;;5.30;;
6860;SDS011;3469;47.060;15.460;2023-05-07T03:55:57;5.30;;;4.07;;
6860;SDS011;3469;47.060;15.460;2023-05-07T03:58:26;6.10;;;5.60;;
6860;SDS011;3469;47.060;15.460;2023-05-07T04:00:58;7.83;;;5.33;;
6860;SDS011;3469;47.060;15.460;2023-05-07T04:03:28;6.97;;;4.70;;
6860;SDS011;3469;47.060;15.460;2023-05-07T04:05:59;7.27;;;4.90;;
6860;SDS011;3469;47.060;15.460;2023-05-07T04:08:29;6.00;;;4.07;;
6860;SDS011;3469;47.060;15.460;2023-05-07T04:10:59;7.37;;;4.90;;
6860;SDS011;3469;47.060;15.460;2023-05-07T04:13:31;7.33;;;4.77;;
6860;SDS011;3469;47.060;15.460;2023-05-07T04:16:03;8.50;;;5.13;;
6860;SDS011;3469;47.060;15.460;2023-05-07T04:18:34;5.77;;;4.50;;
6860;SDS011;3469;47.060;15.460;2023-05-07T04:21:03;7.33;;;5.37;;
6860;SDS011;3469;47.060;15.460;2023-05-07T04:23:35;7.83;;;4.70;;
6860;SDS011;3469;47.060;15.460;2023-05-07T04:26:08;5.03;;;4.53;;
6860;SDS011;3469;47.060;15.460;2023-05-07T04:28:41;5.97;;;4.90;;
6860;SDS011;3469;47.060;15.460;2023-05-07T04:31:11;9.63;;;5.70;;
6860;SDS011;3469;47.060;15.460;2023-05-07T04:33:40;5.90;;;4.73;;
6860;SDS011;3469;47.060;15.460;2023-05-07T04:36:12;12.07;;;5.07;;
6860;SDS011;3469;47.060;15.460;2023-05-07T04:38:50;6.17;;;4.87;;
6860;SDS011;3469;47.060;15.460;2023-05-07T04:41:19;5.97;;;4.80;;
6860;SDS011;3469;47.060;15.460;2023-05-07T04:43:48;6.70;;;5.00;;
6860;SDS011;3469;47.060;15.460;2023-05-07T04:46:19;7.43;;;4.60;;
6860;SDS011;3469;47.060;15.460;2023-05-07T04:48:48;5.50;;;4.33;;
6860;SDS011;3469;47.060;15.460;2023-05-07T04:51:17;5.97;;;4.60;;
6860;SDS011;3469;47.060;15.460;2023-05-07T04:53:46;5.03;;;4.40;;
6860;SDS011;3469;47.060;15.460;2023-05-07T04:56:15;6.20;;;5.20;;
6860;SDS011;3469;47.060;15.460;2023-05-07T04:58:46;5.60;;;4.43;;
6860;SDS011;3469;47.060;15.460;2023-05-07T05:01:21;7.20;;;5.67;;
6860;SDS011;3469;47.060;15.460;2023-05-07T05:03:49;5.40;;;4.50;;
6860;SDS011;3469;47.060;15.460;2023-05-07T05:06:19;5.70;;;4.40;;
6860;SDS011;3469;47.060;15.460;2023-05-07T05:08:48;5.47;;;4.73;;
6860;SDS011;3469;47.060;15.460;2023-05-07T05:11:17;4.60;;;4.17;;
6860;SDS011;3469;47.060;15.460;2023-05-07T05:13:45;5.13;;;4.40;;
6860;SDS011;3469;47.060;15.460;2023-05-07T05:16:18;4.27;;;3.70;;
6860;SDS011;3469;47.060;15.460;2023-05-07T05:18:49;3.77;;;3.43;;
6860;SDS011;3469;47.060;15.460;2023-05-07T05:21:18;5.13;;;4.03;;
6860;SDS011;3469;47.060;15.460;2023-05-07T05:23:50;6.20;;;3.83;;
6860;SDS011;3469;47.060;15.460;2023-05-07T05:26:21;3.80;;;3.40;;
6860;SDS011;3469;47.060;15.460;2023-05-07T05:28:49;4.47;;;3.60;;
6860;SDS011;3469;47.060;15.460;2023-05-07T05:31:20;4.87;;;3.93;;
6860;SDS011;3469;47.060;15.460;2023-05-07T05:33:51;4.13;;;3.53;;
6860;SDS011;3469;47.060;15.460;2023-05-07T05:36:20;3.90;;;3.30;;
6860;SDS011;3469;47.060;15.460;2023-05-07T05:39:09;3.80;;;3.33;;
6860;SDS011;3469;47.060;15.460;2023-05-07T05:41:37;4.20;;;3.57;;
6860;SDS011;3469;47.060;15.460;2023-05-07T05:44:07;3.53;;;3.10;;
6860;SDS011;3469;47.060;15.460;2023-05-07T05:46:35;3.60;;;3.30;;
6860;SDS011;3469;47.060;15.460;2023-05-07T05:49:06;4.83;;;3.80;;
6860;SDS011;3469;47.060;15.460;2023-05-07T05:51:38;4.13;;;3.10;;
6860;SDS011;3469;47.060;15.460;2023-05-07T05:54:06;4.90;;;3.80;;
6860;SDS011;3469;47.060;15.460;2023-05-07T05:56:36;3.40;;;3.00;;
6860;SDS011;3469;47.060;15.460;2023-05-07T05:59:06;3.73;;;3.43;;
6860;SDS011;3469;47.060;15.460;2023-05-07T06:01:35;3.47;;;2.90;;
6860;SDS011;3469;47.060;15.460;2023-05-07T06:04:04;4.93;;;3.30;;
6860;SDS011;3469;47.060;15.460;2023-05-07T06:06:34;3.50;;;3.20;;
6860;SDS011;3469;47.060;15.460;2023-05-07T06:09:03;3.60;;;3.07;;
6860;SDS011;3469;47.060;15.460;2023-05-07T06:11:37;2.57;;;2.23;;
6860;SDS011;3469;47.060;15.460;2023-05-07T06:14:30;3.40;;;2.77;;
6860;SDS011;3469;47.060;15.460;2023-05-07T06:16:59;2.60;;;2.30;;
6860;SDS011;3469;47.060;15.460;2023-05-07T06:19:27;4.00;;;2.63;;
6860;SDS011;3469;47.060;15.460;2023-05-07T06:21:58;4.57;;;2.57;;
6860;SDS011;3469;47.060;15.460;2023-05-07T06:24:29;3.70;;;3.40;;
6860;SDS011;3469;47.060;15.460;2023-05-07T06:26:57;3.13;;;2.83;;
6860;SDS011;3469;47.060;15.460;2023-05-07T06:29:28;3.93;;;2.63;;
6860;SDS011;3469;47.060;15.460;2023-05-07T06:32:05;2.93;;;2.60;;
6860;SDS011;3469;47.060;15.460;2023-05-07T06:34:34;3.83;;;3.10;;
6860;SDS011;3469;47.060;15.460;2023-05-07T06:37:05;2.70;;;2.50;;
6860;SDS011;3469;47.060;15.460;2023-05-07T06:39:49;4.10;;;2.60;;
6860;SDS011;3469;47.060;15.460;2023-05-07T06:42:17;3.83;;;2.23;;
6860;SDS011;3469;47.060;15.460;2023-05-07T06:44:47;3.30;;;2.40;;
6860;SDS011;3469;47.060;15.460;2023-05-07T06:47:18;4.10;;;2.47;;
6860;SDS011;3469;47.060;15.460;2023-05-07T06:49:50;3.80;;;2.73;;
6860;SDS011;3469;47.060;15.460;2023-05-07T06:52:23;3.10;;;2.73;;
6860;SDS011;3469;47.060;15.460;2023-05-07T06:54:54;5.03;;;3.30;;
6860;SDS011;3469;47.060;15.460;2023-05-07T06:57:24;3.97;;;3.00;;
6860;SDS011;3469;47.060;15.460;2023-05-07T06:59:53;3.57;;;2.33;;
6860;SDS011;3469;47.060;15.460;2023-05-07T07:02:22;2.90;;;2.40;;
6860;SDS011;3469;47.060;15.460;2023-05-07T07:04:51;4.13;;;2.70;;
6860;SDS011;3469;47.060;15.460;2023-05-07T07:07:20;3.30;;;2.80;;
6860;SDS011;3469;47.060;15.460;2023-05-07T07:09:53;8.73;;;3.30;;
6860;SDS011;3469;47.060;15.460;2023-05-07T07:12:22;5.43;;;3.30;;
6860;SDS011;3469;47.060;15.460;2023-05-07T07:14:52;3.37;;;2.63;;
6860;SDS011;3469;47.060;15.460;2023-05-07T07:17:22;3.93;;;3.50;;
6860;SDS011;3469;47.060;15.460;2023-05-07T07:19:51;3.87;;;3.53;;
6860;SDS011;3469;47.060;15.460;2023-05-07T07:22:21;4.80;;;3.73;;
6860;SDS011;3469;47.060;15.460;2023-05-07T07:24:50;3.60;;;3.03;;
6860;SDS011;3469;47.060;15.460;2023-05-07T07:27:20;3.80;;;3.20;;
6860;SDS011;3469;47.060;15.460;2023-05-07T07:29:49;4.00;;;3.60;;
6860;SDS011;3469;47.060;15.460;2023-05-07T07:32:18;4.23;;;3.33;;
6860;SDS011;3469;47.060;15.460;2023-05-07T07:34:47;4.33;;;3.00;;
6860;SDS011;3469;47.060;15.460;2023-05-07T07:37:16;3.40;;;3.10;;
6860;SDS011;3469;47.060;15.460;2023-05-07T07:39:44;8.30;;;4.10;;
6860;SDS011;3469;47.060;15.460;2023-05-07T07:42:14;3.43;;;3.10;;
6860;SDS011;3469;47.060;15.460;2023-05-07T07:44:48;3.83;;;3.53;;
6860;SDS011;3469;47.060;15.460;2023-05-07T07:47:22;4.03;;;3.63;;
6860;SDS011;3469;47.060;15.460;2023-05-07T07:49:52;3.60;;;3.30;;
6860;SDS011;3469;47.060;15.460;2023-05-07T07:52:21;5.83;;;3.30;;
6860;SDS011;3469;47.060;15.460;2023-05-07T07:54:50;4.30;;;3.40;;
6860;SDS011;3469;47.060;15.460;2023-05-07T07:57:22;3.50;;;3.20;;
6860;SDS011;3469;47.060;15.460;2023-05-07T07:59:53;3.70;;;3.40;;
6860;SDS011;3469;47.060;15.460;2023-05-07T08:02:24;5.40;;;3.70;;
6860;SDS011;3469;47.060;15.460;2023-05-07T08:04:55;3.40;;;3.10;;
6860;SDS011;3469;47.060;15.460;2023-05-07T08:07:25;4.20;;;3.80;;
6860;SDS011;3469;47.060;15.460;2023-05-07T08:10:01;3.67;;;3.37;;
6860;SDS011;3469;47.060;15.460;2023-05-07T08:13:00;3.70;;;3.40;;
6860;SDS011;3469;47.060;15.460;2023-05-07T08:15:32;5.00;;;3.80;;
6860;SDS011;3469;47.060;15.460;2023-05-07T08:18:05;4.33;;;3.93;;
6860;SDS011;3469;47.060;15.460;2023-05-07T08:20:46;4.03;;;3.63;;
6860;SDS011;3469;47.060;15.460;2023-05-07T08:23:19;4.93;;;3.83;;
6860;SDS011;3469;47.060;15.460;2023-05-07T08:25:48;3.87;;;3.47;;
6860;SDS011;3469;47.060;15.460;2023-05-07T08:28:19;5.30;;;3.43;;
6860;SDS011;3469;47.060;15.460;2023-05-07T08:30:49;4.00;;;3.23;;
6860;SDS011;3469;47.060;15.460;2023-05-07T08:33:19;3.27;;;3.03;;
6860;SDS011;3469;47.060;15.460;2023-05-07T08:35:47;3.47;;;3.17;;
6860;SDS011;3469;47.060;15.460;2023-05-07T08:38:16;4.13;;;3.20;;
6860;SDS011;3469;47.060;15.460;2023-05-07T08:40:45;3.87;;;3.50;;
6860;SDS011;3469;47.060;15.460;2023-05-07T08:43:20;4.10;;;3.70;;
6860;SDS011;3469;47.060;15.460;2023-05-07T08:45:51;4.17;;;3.77;;
6860;SDS011;3469;47.060;15.460;2023-05-07T08:48:26;4.17;;;3.70;;
6860;SDS011;3469;47.060;15.460;2023-05-07T08:51:03;5.13;;;4.20;;
6860;SDS011;3469;47.060;15.460;2023-05-07T08:53:32;5.93;;;3.37;;
6860;SDS011;3469;47.060;15.460;2023-05-07T08:56:01;5.10;;;3.77;;
6860;SDS011;3469;47.060;15.460;2023-05-07T08:58:34;4.70;;;3.97;;
6860;SDS011;3469;47.060;15.460;2023-05-07T09:01:06;3.27;;;2.90;;
6860;SDS011;3469;47.060;15.460;2023-05-07T09:03:37;3.63;;;3.33;;
6860;SDS011;3469;47.060;15.460;2023-05-07T09:06:06;3.30;;;3.00;;
6860;SDS011;3469;47.060;15.460;2023-05-07T09:08:34;3.43;;;3.13;;
6860;SDS011;3469;47.060;15.460;2023-05-07T09:11:05;3.17;;;2.87;;
6860;SDS011;3469;47.060;15.460;2023-05-07T09:13:33;4.53;;;3.93;;
6860;SDS011;3469;47.060;15.460;2023-05-07T09:16:11;3.90;;;3.20;;
6860;SDS011;3469;47.060;15.460;2023-05-07T09:18:43;2.97;;;2.77;;
6860;SDS011;3469;47.060;15.460;2023-05-07T09:21:14;4.40;;;3.60;;
6860;SDS011;3469;47.060;15.460;2023-05-07T09:23:47;4.13;;;3.73;;
6860;SDS011;3469;47.060;15.460;2023-05-07T09:26:18;3.77;;;3.00;;
6860;SDS011;3469;47.060;15.460;2023-05-07T09:28:48;3.90;;;3.17;;
6860;SDS011;3469;47.060;15.460;2023-05-07T09:31:18;5.37;;;3.30;;
6860;SDS011;3469;47.060;15.460;2023-05-07T09:33:48;3.50;;;3.20;;
6860;SDS011;3469;47.060;15.460;2023-05-07T09:36:18;3.77;;;3.00;;
6860;SDS011;3469;47.060;15.460;2023-05-07T09:38:48;3.80;;;3.50;;
6860;SDS011;3469;47.060;15.460;2023-05-07T09:44:20;2.73;;;2.53;;
6860;SDS011;3469;47.060;15.460;2023-05-07T09:46:54;2.90;;;2.50;;
6860;SDS011;3469;47.060;15.460;2023-05-07T09:49:33;2.67;;;2.33;;
6860;SDS011;3469;47.060;15.460;2023-05-07T09:52:07;3.40;;;3.10;;
6860;SDS011;3469;47.060;15.460;2023-05-07T09:54:43;2.80;;;2.43;;
6860;SDS011;3469;47.060;15.460;2023-05-07T09:57:23;3.20;;;2.30;;
6860;SDS011;3469;47.060;15.460;2023-05-07T09:59:57;2.97;;;2.77;;
6860;SDS011;3469;47.060;15.460;2023-05-07T10:02:30;3.50;;;3.17;;
6860;SDS011;3469;47.060;15.460;2023-05-07T10:05:03;2.87;;;2.67;;
6860;SDS011;3469;47.060;15.460;2023-05-07T10:07:34;3.20;;;2.90;;
6860;SDS011;3469;47.060;15.460;2023-05-07T10:10:07;3.40;;;3.10;;
6860;SDS011;3469;47.060;15.460;2023-05-07T10:12:43;2.80;;;2.50;;
6860;SDS011;3469;47.060;15.460;2023-05-07T10:15:22;4.67;;;2.90;;
6860;SDS011;3469;47.060;15.460;2023-05-07T10:17:56;3.03;;;2.73;;
6860;SDS011;3469;47.060;15.460;2023-05-07T10:20:28;2.90;;;2.70;;
6860;SDS011;3469;47.060;15.460;2023-05-07T10:23:09;2.33;;;2.13;;
6860;SDS011;3469;47.060;15.460;2023-05-07T10:25:46;3.27;;;2.97;;
6860;SDS011;3469;47.060;15.460;2023-05-07T10:28:23;2.87;;;2.60;;
6860;SDS011;3469;47.060;15.460;2023-05-07T10:30:58;2.40;;;2.20;;
6860;SDS011;3469;47.060;15.460;2023-05-07T10:33:51;2.37;;;2.17;;
6860;SDS011;3469;47.060;15.460;2023-05-07T10:36:23;2.67;;;2.30;;
6860;SDS011;3469;47.060;15.460;2023-05-07T10:38:53;4.63;;;2.47;;
6860;SDS011;3469;47.060;15.460;2023-05-07T10:41:22;2.70;;;2.50;;
6860;SDS011;3469;47.060;15.460;2023-05-07T10:43:51;2.37;;;2.17;;
6860;SDS011;3469;47.060;15.460;2023-05-07T10:46:29;4.00;;;2.53;;
6860;SDS011;3469;47.060;15.460;2023-05-07T10:49:12;2.50;;;2.30;;
6860;SDS011;3469;47.060;15.460;2023-05-07T10:52:11;3.70;;;2.30;;
6860;SDS011;3469;47.060;15.460;2023-05-07T10:54:50;3.93;;;2.57;;
6860;SDS011;3469;47.060;15.460;2023-05-07T10:58:14;2.20;;;2.00;;
6860;SDS011;3469;47.060;15.460;2023-05-07T11:01:02;3.10;;;2.50;;
6860;SDS011;3469;47.060;15.460;2023-05-07T11:03:37;2.07;;;1.93;;
6860;SDS011;3469;47.060;15.460;2023-05-07T11:10:10;2.60;;;2.40;;
6860;SDS011;3469;47.060;15.460;2023-05-07T11:12:55;2.53;;;1.90;;
6860;SDS011;3469;47.060;15.460;2023-05-07T11:15:37;2.37;;;2.17;;
6860;SDS011;3469;47.060;15.460;2023-05-07T11:18:38;2.40;;;2.20;;
6860;SDS011;3469;47.060;15.460;2023-05-07T11:24:38;1.80;;;1.70;;
6860;SDS011;3469;47.060;15.460;2023-05-07T11:27:08;2.13;;;1.93;;
6860;SDS011;3469;47.060;15.460;2023-05-07T11:29:36;2.70;;;2.50;;
6860;SDS011;3469;47.060;15.460;2023-05-07T11:32:12;2.37;;;2.17;;
6860;SDS011;3469;47.060;15.460;2023-05-07T11:34:50;1.93;;;1.73;;
6860;SDS011;3469;47.060;15.460;2023-05-07T11:37:21;2.13;;;1.93;;
6860;SDS011;3469;47.060;15.460;2023-05-07T11:40:03;1.80;;;1.70;;
6860;SDS011;3469;47.060;15.460;2023-05-07T11:42:32;2.23;;;1.80;;
6860;SDS011;3469;47.060;15.460;2023-05-07T11:45:01;1.83;;;1.60;;
6860;SDS011;3469;47.060;15.460;2023-05-07T11:47:30;2.00;;;1.90;;
6860;SDS011;3469;47.060;15.460;2023-05-07T11:50:02;2.33;;;1.70;;
6860;SDS011;3469;47.060;15.460;2023-05-07T11:52:32;2.20;;;2.00;;
6860;SDS011;3469;47.060;15.460;2023-05-07T11:55:02;2.20;;;2.00;;
6860;SDS011;3469;47.060;15.460;2023-05-07T11:57:32;1.83;;;1.70;;
6860;SDS011;3469;47.060;15.460;2023-05-07T12:00:02;2.50;;;1.80;;
6860;SDS011;3469;47.060;15.460;2023-05-07T12:02:40;2.77;;;2.23;;
6860;SDS011;3469;47.060;15.460;2023-05-07T12:05:11;2.10;;;1.90;;
6860;SDS011;3469;47.060;15.460;2023-05-07T12:07:42;1.80;;;1.70;;
6860;SDS011;3469;47.060;15.460;2023-05-07T12:10:11;1.90;;;1.70;;
6860;SDS011;3469;47.060;15.460;2023-05-07T12:12:40;3.13;;;2.17;;
6860;SDS011;3469;47.060;15.460;2023-05-07T12:15:09;1.70;;;1.60;;
6860;SDS011;3469;47.060;15.460;2023-05-07T12:17:39;2.10;;;1.90;;
6860;SDS011;3469;47.060;15.460;2023-05-07T12:20:08;2.30;;;2.10;;
6860;SDS011;3469;47.060;15.460;2023-05-07T12:22:38;2.60;;;2.40;;
6860;SDS011;3469;47.060;15.460;2023-05-07T12:25:08;2.40;;;2.03;;
6860;SDS011;3469;47.060;15.460;2023-05-07T12:27:38;2.37;;;2.17;;
6860;SDS011;3469;47.060;15.460;2023-05-07T12:30:10;2.10;;;1.93;;
6860;SDS011;3469;47.060;15.460;2023-05-07T12:32:39;2.13;;;1.93;;
6860;SDS011;3469;47.060;15.460;2023-05-07T12:35:10;2.60;;;2.00;;
6860;SDS011;3469;47.060;15.460;2023-05-07T12:37:39;2.00;;;1.80;;
6860;SDS011;3469;47.060;15.460;2023-05-07T12:40:11;2.20;;;2.00;;
6860;SDS011;3469;47.060;15.460;2023-05-07T12:42:41;2.20;;;2.00;;
6860;SDS011;3469;47.060;15.460;2023-05-07T12:45:13;2.30;;;2.10;;
6860;SDS011;3469;47.060;15.460;2023-05-07T12:47:44;2.13;;;1.93;;
6860;SDS011;3469;47.060;15.460;2023-05-07T12:50:13;2.47;;;1.80;;
6860;SDS011;3469;47.060;15.460;2023-05-07T12:52:42;2.57;;;2.27;;
6860;SDS011;3469;47.060;15.460;2023-05-07T12:55:13;2.33;;;2.10;;
6860;SDS011;3469;47.060;15.460;2023-05-07T12:57:43;1.97;;;1.87;;
6860;SDS011;3469;47.060;15.460;2023-05-07T13:00:13;2.60;;;2.40;;
6860;SDS011;3469;47.060;15.460;2023-05-07T13:02:43;2.47;;;2.20;;
6860;SDS011;3469;47.060;15.460;2023-05-07T13:05:12;2.20;;;2.00;;
6860;SDS011;3469;47.060;15.460;2023-05-07T13:07:51;2.80;;;2.17;;
6860;SDS011;3469;47.060;15.460;2023-05-07T13:10:23;2.57;;;2.37;;
6860;SDS011;3469;47.060;15.460;2023-05-07T13:12:52;2.83;;;2.37;;
6860;SDS011;3469;47.060;15.460;2023-05-07T13:15:21;3.53;;;2.80;;
6860;SDS011;3469;47.060;15.460;2023-05-07T13:17:50;3.33;;;3.03;;
6860;SDS011;3469;47.060;15.460;2023-05-07T13:20:18;3.93;;;2.70;;
6860;SDS011;3469;47.060;15.460;2023-05-07T13:22:47;4.20;;;3.30;;
6860;SDS011;3469;47.060;15.460;2023-05-07T13:25:15;8.00;;;3.43;;
6860;SDS011;3469;47.060;15.460;2023-05-07T13:27:46;4.40;;;3.70;;
6860;SDS011;3469;47.060;15.460;2023-05-07T13:30:32;3.30;;;3.00;;
6860;SDS011;3469;47.060;15.460;2023-05-07T13:33:00;7.37;;;3.90;;
6860;SDS011;3469;47.060;15.460;2023-05-07T13:35:29;4.43;;;3.47;;
6860;SDS011;3469;47.060;15.460;2023-05-07T13:37:57;4.83;;;3.87;;
6860;SDS011;3469;47.060;15.460;2023-05-07T13:40:26;5.83;;;4.17;;
6860;SDS011;3469;47.060;15.460;2023-05-07T13:42:56;6.03;;;5.43;;
6860;SDS011;3469;47.060;15.460;2023-05-07T13:45:25;6.97;;;5.80;;
6860;SDS011;3469;47.060;15.460;2023-05-07T13:48:01;5.93;;;5.27;;
6860;SDS011;3469;47.060;15.460;2023-05-07T13:50:30;7.10;;;5.97;;
6860;SDS011;3469;47.060;15.460;2023-05-07T13:53:00;9.93;;;7.33;;
6860;SDS011;3469;47.060;15.460;2023-05-07T13:55:28;7.07;;;6.13;;
6860;SDS011;3469;47.060;15.460;2023-05-07T13:57:59;10.03;;;6.40;;
6860;SDS011;3469;47.060;15.460;2023-05-07T14:00:33;9.20;;;7.90;;
6860;SDS011;3469;47.060;15.460;2023-05-07T14:03:01;9.00;;;7.90;;
6860;SDS011;3469;47.060;15.460;2023-05-07T14:05:29;9.97;;;8.67;;
6860;SDS011;3469;47.060;15.460;2023-05-07T14:07:58;11.10;;;9.60;;
6860;SDS011;3469;47.060;15.460;2023-05-07T14:10:27;11.23;;;8.97;;
6860;SDS011;3469;47.060;15.460;2023-05-07T14:12:55;11.20;;;9.60;;
6860;SDS011;3469;47.060;15.460;2023-05-07T14:15:24;11.30;;;8.70;;
6860;SDS011;3469;47.060;15.460;2023-05-07T14:17:53;9.90;;;8.73;;
6860;SDS011;3469;47.060;15.460;2023-05-07T14:20:21;15.10;;;10.37;;
6860;SDS011;3469;47.060;15.460;2023-05-07T14:22:49;11.40;;;10.00;;
6860;SDS011;3469;47.060;15.460;2023-05-07T14:25:17;11.50;;;10.07;;
6860;SDS011;3469;47.060;15.460;2023-05-07T14:27:49;11.30;;;9.57;;
6860;SDS011;3469;47.060;15.460;2023-05-07T14:30:17;10.80;;;9.70;;
6860;SDS011;3469;47.060;15.460;2023-05-07T14:32:47;11.80;;;9.00;;
6860;SDS011;3469;47.060;15.460;2023-05-07T14:35:16;10.60;;;8.73;;
6860;SDS011;3469;47.060;15.460;2023-05-07T14:37:45;13.00;;;8.87;;
6860;SDS011;3469;47.060;15.460;2023-05-07T14:40:13;12.80;;;10.33;;
6860;SDS011;3469;47.060;15.460;2023-05-07T14:42:42;12.50;;;9.37;;
6860;SDS011;3469;47.060;15.460;2023-05-07T14:45:10;10.77;;;9.00;;
6860;SDS011;3469;47.060;15.460;2023-05-07T14:47:39;11.80;;;9.60;;
6860;SDS011;3469;47.060;15.460;2023-05-07T14:50:10;11.23;;;9.87;;
6860;SDS011;3469;47.060;15.460;2023-05-07T14:52:42;9.77;;;7.73;;
6860;SDS011;3469;47.060;15.460;2023-05-07T14:55:15;13.10;;;9.03;;
6860;SDS011;3469;47.060;15.460;2023-05-07T14:57:47;7.57;;;5.70;;
6860;SDS011;3469;47.060;15.460;2023-05-07T15:00:15;11.10;;;9.20;;
6860;SDS011;3469;47.060;15.460;2023-05-07T15:02:44;11.93;;;10.40;;
6860;SDS011;3469;47.060;15.460;2023-05-07T15:05:14;10.53;;;9.37;;
6860;SDS011;3469;47.060;15.460;2023-05-07T15:07:44;12.27;;;9.40;;
6860;SDS011;3469;47.060;15.460;2023-05-07T15:10:13;10.97;;;9.27;;
6860;SDS011;3469;47.060;15.460;2023-05-07T15:12:57;12.63;;;11.03;;
6860;SDS011;3469;47.060;15.460;2023-05-07T15:15:25;12.30;;;10.97;;
6860;SDS011;3469;47.060;15.460;2023-05-07T15:17:55;11.60;;;10.20;;
6860;SDS011;3469;47.060;15.460;2023-05-07T15:20:25;11.83;;;9.67;;
6860;SDS011;3469;47.060;15.460;2023-05-07T15:22:53;13.10;;;11.07;;
6860;SDS011;3469;47.060;15.460;2023-05-07T15:25:24;14.00;;;12.47;;
6860;SDS011;3469;47.060;15.460;2023-05-07T15:27:53;12.90;;;11.40;;
6860;SDS011;3469;47.060;15.460;2023-05-07T15:30:22;13.60;;;10.77;;
6860;SDS011;3469;47.060;15.460;2023-05-07T15:32:52;13.53;;;11.80;;
6860;SDS011;3469;47.060;15.460;2023-05-07T15:35:24;13.33;;;10.23;;